sensor_id;sensor_type;location;lat;lon;timestamp;P1;durP1;ratioP1;P2;durP2;ratioP2
37459;SDS011;23318;50.966;5.284;2024-02-21T00:00:47;30.10;;;11.88;;
37459;SDS011;23318;50.966;5.284;2024-02-21T00:03:13;31.92;;;12.10;;
37459;SDS011;23318;50.966;5.284;2024-02-21T00:05:38;38.95;;;13.68;;
37459;SDS011;23318;50.966;5.284;2024-02-21T00:08:04;28.40;;;12.93;;
37459;SDS011;23318;50.966;5.284;2024-02-21T00:10:30;39.97;;;13.27;;
37459;SDS011;23318;50.966;5.284;2024-02-21T00:12:58;34.17;;;13.00;;
37459;SDS011;23318;50.966;5.284;2024-02-21T00:15:24;32.92;;;13.15;;
37459;SDS011;23318;50.966;5.284;2024-02-21T00:17:50;34.92;;;12.63;;
37459;SDS011;23318;50.966;5.284;2024-02-21T00:20:16;29.92;;;10.82;;
37459;SDS011;23318;50.966;5.284;2024-02-21T00:22:42;24.27;;;10.25;;
37459;SDS011;23318;50.966;5.284;2024-02-21T00:25:11;27.02;;;10.85;;
37459;SDS011;23318;50.966;5.284;2024-02-21T00:27:37;29.40;;;10.43;;
37459;SDS011;23318;50.966;5.284;2024-02-21T00:30:04;36.40;;;12.00;;
37459;SDS011;23318;50.966;5.284;2024-02-21T00:32:30;27.30;;;11.40;;
37459;SDS011;23318;50.966;5.284;2024-02-21T00:34:57;26.38;;;11.50;;
37459;SDS011;23318;50.966;5.284;2024-02-21T00:37:22;29.38;;;11.68;;
37459;SDS011;23318;50.966;5.284;2024-02-21T00:39:48;28.52;;;10.45;;
37459;SDS011;23318;50.966;5.284;2024-02-21T00:42:14;32.92;;;11.48;;
37459;SDS011;23318;50.966;5.284;2024-02-21T00:44:39;21.92;;;10.45;;
37459;SDS011;23318;50.966;5.284;2024-02-21T00:47:05;30.40;;;12.35;;
37459;SDS011;23318;50.966;5.284;2024-02-21T00:49:31;31.00;;;10.18;;
37459;SDS011;23318;50.966;5.284;2024-02-21T00:51:56;24.88;;;10.18;;
37459;SDS011;23318;50.966;5.284;2024-02-21T00:54:22;24.92;;;9.80;;
37459;SDS011;23318;50.966;5.284;2024-02-21T00:56:48;25.83;;;9.40;;
37459;SDS011;23318;50.966;5.284;2024-02-21T00:59:13;27.27;;;9.63;;
37459;SDS011;23318;50.966;5.284;2024-02-21T01:01:39;26.88;;;11.07;;
37459;SDS011;23318;50.966;5.284;2024-02-21T01:04:07;28.15;;;9.25;;
37459;SDS011;23318;50.966;5.284;2024-02-21T01:06:34;23.10;;;10.07;;
37459;SDS011;23318;50.966;5.284;2024-02-21T01:08:59;22.63;;;9.75;;
37459;SDS011;23318;50.966;5.284;2024-02-21T01:11:25;29.77;;;10.70;;
37459;SDS011;23318;50.966;5.284;2024-02-21T01:13:51;28.15;;;9.15;;
37459;SDS011;23318;50.966;5.284;2024-02-21T01:16:16;27.17;;;9.32;;
37459;SDS011;23318;50.966;5.284;2024-02-21T01:18:42;22.73;;;8.90;;
37459;SDS011;23318;50.966;5.284;2024-02-21T01:21:08;20.77;;;8.25;;
37459;SDS011;23318;50.966;5.284;2024-02-21T01:23:35;22.85;;;9.15;;
37459;SDS011;23318;50.966;5.284;2024-02-21T01:26:02;24.15;;;8.95;;
37459;SDS011;23318;50.966;5.284;2024-02-21T01:28:28;22.20;;;8.63;;
37459;SDS011;23318;50.966;5.284;2024-02-21T01:30:54;22.38;;;8.15;;
37459;SDS011;23318;50.966;5.284;2024-02-21T01:33:20;20.50;;;9.00;;
37459;SDS011;23318;50.966;5.284;2024-02-21T01:35:46;27.15;;;9.05;;
37459;SDS011;23318;50.966;5.284;2024-02-21T01:38:15;30.13;;;8.32;;
37459;SDS011;23318;50.966;5.284;2024-02-21T01:40:40;34.17;;;9.40;;
37459;SDS011;23318;50.966;5.284;2024-02-21T01:43:15;27.85;;;8.77;;
37459;SDS011;23318;50.966;5.284;2024-02-21T01:45:42;25.92;;;8.90;;
37459;SDS011;23318;50.966;5.284;2024-02-21T01:48:07;29.50;;;9.55;;
37459;SDS011;23318;50.966;5.284;2024-02-21T01:50:33;24.33;;;9.23;;
37459;SDS011;23318;50.966;5.284;2024-02-21T01:52:59;21.80;;;8.35;;
37459;SDS011;23318;50.966;5.284;2024-02-21T01:55:25;20.40;;;6.88;;
37459;SDS011;23318;50.966;5.284;2024-02-21T01:57:51;23.88;;;7.55;;
37459;SDS011;23318;50.966;5.284;2024-02-21T02:00:17;26.83;;;7.35;;
37459;SDS011;23318;50.966;5.284;2024-02-21T02:02:43;24.30;;;7.95;;
37459;SDS011;23318;50.966;5.284;2024-02-21T02:05:10;20.98;;;8.55;;
37459;SDS011;23318;50.966;5.284;2024-02-21T02:07:37;18.40;;;6.90;;
37459;SDS011;23318;50.966;5.284;2024-02-21T02:10:02;29.92;;;9.45;;
37459;SDS011;23318;50.966;5.284;2024-02-21T02:12:28;22.55;;;7.70;;
37459;SDS011;23318;50.966;5.284;2024-02-21T02:14:58;23.38;;;6.72;;
37459;SDS011;23318;50.966;5.284;2024-02-21T02:17:29;20.50;;;7.25;;
37459;SDS011;23318;50.966;5.284;2024-02-21T02:19:55;23.77;;;8.38;;
37459;SDS011;23318;50.966;5.284;2024-02-21T02:22:30;21.95;;;6.22;;
37459;SDS011;23318;50.966;5.284;2024-02-21T02:24:59;21.45;;;6.97;;
37459;SDS011;23318;50.966;5.284;2024-02-21T02:27:25;22.95;;;7.80;;
37459;SDS011;23318;50.966;5.284;2024-02-21T02:29:50;22.52;;;6.95;;
37459;SDS011;23318;50.966;5.284;2024-02-21T02:32:17;13.43;;;7.82;;
37459;SDS011;23318;50.966;5.284;2024-02-21T02:34:43;21.13;;;7.35;;
37459;SDS011;23318;50.966;5.284;2024-02-21T02:37:08;23.52;;;7.45;;
37459;SDS011;23318;50.966;5.284;2024-02-21T02:39:34;18.45;;;7.60;;
37459;SDS011;23318;50.966;5.284;2024-02-21T02:42:00;20.92;;;7.38;;
37459;SDS011;23318;50.966;5.284;2024-02-21T02:44:26;25.13;;;6.97;;
37459;SDS011;23318;50.966;5.284;2024-02-21T02:46:52;24.33;;;7.57;;
37459;SDS011;23318;50.966;5.284;2024-02-21T02:49:18;27.63;;;7.30;;
37459;SDS011;23318;50.966;5.284;2024-02-21T02:51:43;23.85;;;7.30;;
37459;SDS011;23318;50.966;5.284;2024-02-21T02:54:09;21.98;;;6.78;;
37459;SDS011;23318;50.966;5.284;2024-02-21T02:56:36;22.77;;;7.88;;
37459;SDS011;23318;50.966;5.284;2024-02-21T02:59:01;20.55;;;7.95;;
37459;SDS011;23318;50.966;5.284;2024-02-21T03:01:28;23.45;;;7.53;;
37459;SDS011;23318;50.966;5.284;2024-02-21T03:03:54;23.65;;;7.90;;
37459;SDS011;23318;50.966;5.284;2024-02-21T03:06:19;22.08;;;7.25;;
37459;SDS011;23318;50.966;5.284;2024-02-21T03:08:45;20.80;;;6.90;;
37459;SDS011;23318;50.966;5.284;2024-02-21T03:11:11;20.27;;;6.57;;
37459;SDS011;23318;50.966;5.284;2024-02-21T03:13:36;19.00;;;6.70;;
37459;SDS011;23318;50.966;5.284;2024-02-21T03:16:02;22.77;;;6.93;;
37459;SDS011;23318;50.966;5.284;2024-02-21T03:18:28;17.25;;;7.05;;
37459;SDS011;23318;50.966;5.284;2024-02-21T03:20:54;20.50;;;6.85;;
37459;SDS011;23318;50.966;5.284;2024-02-21T03:23:19;23.92;;;8.13;;
37459;SDS011;23318;50.966;5.284;2024-02-21T03:25:45;22.00;;;7.85;;
37459;SDS011;23318;50.966;5.284;2024-02-21T03:28:11;21.55;;;7.32;;
37459;SDS011;23318;50.966;5.284;2024-02-21T03:30:36;14.27;;;6.45;;
37459;SDS011;23318;50.966;5.284;2024-02-21T03:33:02;19.33;;;7.18;;
37459;SDS011;23318;50.966;5.284;2024-02-21T03:35:28;18.17;;;7.13;;
37459;SDS011;23318;50.966;5.284;2024-02-21T03:37:54;20.80;;;6.63;;
37459;SDS011;23318;50.966;5.284;2024-02-21T03:40:19;22.90;;;7.13;;
37459;SDS011;23318;50.966;5.284;2024-02-21T03:42:45;27.13;;;6.88;;
37459;SDS011;23318;50.966;5.284;2024-02-21T03:45:10;17.02;;;7.47;;
37459;SDS011;23318;50.966;5.284;2024-02-21T03:47:36;16.90;;;6.78;;
37459;SDS011;23318;50.966;5.284;2024-02-21T03:50:02;21.13;;;6.20;;
37459;SDS011;23318;50.966;5.284;2024-02-21T03:52:27;17.75;;;7.40;;
37459;SDS011;23318;50.966;5.284;2024-02-21T03:54:53;18.50;;;6.63;;
37459;SDS011;23318;50.966;5.284;2024-02-21T03:57:20;19.10;;;6.68;;
37459;SDS011;23318;50.966;5.284;2024-02-21T03:59:46;19.77;;;7.05;;
37459;SDS011;23318;50.966;5.284;2024-02-21T04:02:14;19.35;;;7.50;;
37459;SDS011;23318;50.966;5.284;2024-02-21T04:04:42;17.38;;;7.18;;
37459;SDS011;23318;50.966;5.284;2024-02-21T04:07:11;23.15;;;7.68;;
37459;SDS011;23318;50.966;5.284;2024-02-21T04:09:37;25.90;;;8.27;;
37459;SDS011;23318;50.966;5.284;2024-02-21T04:12:03;18.52;;;7.00;;
37459;SDS011;23318;50.966;5.284;2024-02-21T04:14:29;20.63;;;7.60;;
37459;SDS011;23318;50.966;5.284;2024-02-21T04:16:54;17.27;;;7.20;;
37459;SDS011;23318;50.966;5.284;2024-02-21T04:19:20;17.23;;;6.88;;
37459;SDS011;23318;50.966;5.284;2024-02-21T04:21:45;17.02;;;7.15;;
37459;SDS011;23318;50.966;5.284;2024-02-21T04:24:11;19.00;;;6.63;;
37459;SDS011;23318;50.966;5.284;2024-02-21T04:26:37;26.95;;;7.05;;
37459;SDS011;23318;50.966;5.284;2024-02-21T04:29:02;22.55;;;7.65;;
37459;SDS011;23318;50.966;5.284;2024-02-21T04:31:28;24.73;;;7.03;;
37459;SDS011;23318;50.966;5.284;2024-02-21T04:33:54;15.32;;;6.60;;
37459;SDS011;23318;50.966;5.284;2024-02-21T04:36:19;20.67;;;6.82;;
37459;SDS011;23318;50.966;5.284;2024-02-21T04:38:45;21.92;;;7.18;;
37459;SDS011;23318;50.966;5.284;2024-02-21T04:41:11;16.92;;;6.80;;
37459;SDS011;23318;50.966;5.284;2024-02-21T04:43:36;22.20;;;7.55;;
37459;SDS011;23318;50.966;5.284;2024-02-21T04:46:02;21.38;;;7.75;;
37459;SDS011;23318;50.966;5.284;2024-02-21T04:48:28;21.70;;;9.07;;
37459;SDS011;23318;50.966;5.284;2024-02-21T04:50:53;20.00;;;7.32;;
37459;SDS011;23318;50.966;5.284;2024-02-21T04:53:19;20.05;;;6.85;;
37459;SDS011;23318;50.966;5.284;2024-02-21T04:55:45;21.95;;;7.00;;
37459;SDS011;23318;50.966;5.284;2024-02-21T04:58:12;22.25;;;7.00;;
37459;SDS011;23318;50.966;5.284;2024-02-21T05:00:37;21.98;;;7.07;;
37459;SDS011;23318;50.966;5.284;2024-02-21T05:03:03;19.55;;;8.35;;
37459;SDS011;23318;50.966;5.284;2024-02-21T05:05:29;17.63;;;6.90;;
37459;SDS011;23318;50.966;5.284;2024-02-21T05:07:55;22.42;;;8.40;;
37459;SDS011;23318;50.966;5.284;2024-02-21T05:10:20;18.98;;;7.13;;
37459;SDS011;23318;50.966;5.284;2024-02-21T05:12:46;14.63;;;7.03;;
37459;SDS011;23318;50.966;5.284;2024-02-21T05:15:11;20.48;;;7.32;;
37459;SDS011;23318;50.966;5.284;2024-02-21T05:17:37;16.27;;;7.13;;
37459;SDS011;23318;50.966;5.284;2024-02-21T05:20:03;20.77;;;6.85;;
37459;SDS011;23318;50.966;5.284;2024-02-21T05:22:28;25.77;;;8.25;;
37459;SDS011;23318;50.966;5.284;2024-02-21T05:24:54;21.38;;;6.30;;
37459;SDS011;23318;50.966;5.284;2024-02-21T05:27:20;20.80;;;7.13;;
37459;SDS011;23318;50.966;5.284;2024-02-21T05:29:46;21.70;;;7.80;;
37459;SDS011;23318;50.966;5.284;2024-02-21T05:32:13;20.45;;;7.32;;
37459;SDS011;23318;50.966;5.284;2024-02-21T05:34:38;20.45;;;6.13;;
37459;SDS011;23318;50.966;5.284;2024-02-21T05:37:04;24.48;;;8.07;;
37459;SDS011;23318;50.966;5.284;2024-02-21T05:39:30;12.65;;;5.72;;
37459;SDS011;23318;50.966;5.284;2024-02-21T05:41:56;17.52;;;6.72;;
37459;SDS011;23318;50.966;5.284;2024-02-21T05:44:21;15.55;;;5.60;;
37459;SDS011;23318;50.966;5.284;2024-02-21T05:46:47;15.60;;;5.97;;
37459;SDS011;23318;50.966;5.284;2024-02-21T05:49:13;15.95;;;6.15;;
37459;SDS011;23318;50.966;5.284;2024-02-21T05:51:39;18.10;;;5.88;;
37459;SDS011;23318;50.966;5.284;2024-02-21T05:54:05;15.20;;;6.45;;
37459;SDS011;23318;50.966;5.284;2024-02-21T05:56:32;15.82;;;5.28;;
37459;SDS011;23318;50.966;5.284;2024-02-21T05:58:58;13.25;;;6.80;;
37459;SDS011;23318;50.966;5.284;2024-02-21T06:01:23;10.63;;;5.03;;
37459;SDS011;23318;50.966;5.284;2024-02-21T06:03:50;16.38;;;5.78;;
37459;SDS011;23318;50.966;5.284;2024-02-21T06:06:16;12.55;;;4.90;;
37459;SDS011;23318;50.966;5.284;2024-02-21T06:08:42;13.27;;;5.57;;
37459;SDS011;23318;50.966;5.284;2024-02-21T06:11:07;10.30;;;5.40;;
37459;SDS011;23318;50.966;5.284;2024-02-21T06:13:33;15.13;;;6.13;;
37459;SDS011;23318;50.966;5.284;2024-02-21T06:16:03;13.68;;;6.10;;
37459;SDS011;23318;50.966;5.284;2024-02-21T06:18:29;13.63;;;5.78;;
37459;SDS011;23318;50.966;5.284;2024-02-21T06:20:55;14.25;;;5.30;;
37459;SDS011;23318;50.966;5.284;2024-02-21T06:23:21;13.90;;;5.65;;
37459;SDS011;23318;50.966;5.284;2024-02-21T06:25:46;15.23;;;5.45;;
37459;SDS011;23318;50.966;5.284;2024-02-21T06:28:12;15.90;;;5.68;;
37459;SDS011;23318;50.966;5.284;2024-02-21T06:30:39;10.05;;;4.97;;
37459;SDS011;23318;50.966;5.284;2024-02-21T06:33:05;13.02;;;6.28;;
37459;SDS011;23318;50.966;5.284;2024-02-21T06:35:32;13.73;;;5.38;;
37459;SDS011;23318;50.966;5.284;2024-02-21T06:37:58;12.60;;;6.82;;
37459;SDS011;23318;50.966;5.284;2024-02-21T06:40:24;10.15;;;4.65;;
37459;SDS011;23318;50.966;5.284;2024-02-21T06:42:50;15.55;;;5.97;;
37459;SDS011;23318;50.966;5.284;2024-02-21T06:45:16;17.15;;;6.03;;
37459;SDS011;23318;50.966;5.284;2024-02-21T06:47:42;17.67;;;8.05;;
37459;SDS011;23318;50.966;5.284;2024-02-21T06:50:08;16.92;;;6.47;;
37459;SDS011;23318;50.966;5.284;2024-02-21T06:52:35;18.35;;;7.53;;
37459;SDS011;23318;50.966;5.284;2024-02-21T06:55:03;14.52;;;7.07;;
37459;SDS011;23318;50.966;5.284;2024-02-21T06:57:29;15.65;;;6.88;;
37459;SDS011;23318;50.966;5.284;2024-02-21T06:59:55;12.77;;;7.03;;
37459;SDS011;23318;50.966;5.284;2024-02-21T07:02:21;18.55;;;6.97;;
37459;SDS011;23318;50.966;5.284;2024-02-21T07:04:46;19.38;;;7.13;;
37459;SDS011;23318;50.966;5.284;2024-02-21T07:07:12;15.88;;;7.10;;
37459;SDS011;23318;50.966;5.284;2024-02-21T07:09:38;15.45;;;7.40;;
37459;SDS011;23318;50.966;5.284;2024-02-21T07:12:04;14.48;;;6.57;;
37459;SDS011;23318;50.966;5.284;2024-02-21T07:14:29;20.70;;;8.10;;
37459;SDS011;23318;50.966;5.284;2024-02-21T07:16:57;18.48;;;6.63;;
37459;SDS011;23318;50.966;5.284;2024-02-21T07:19:23;15.70;;;6.45;;
37459;SDS011;23318;50.966;5.284;2024-02-21T07:21:48;16.08;;;6.25;;
37459;SDS011;23318;50.966;5.284;2024-02-21T07:24:14;20.52;;;6.68;;
37459;SDS011;23318;50.966;5.284;2024-02-21T07:26:43;13.40;;;6.22;;
37459;SDS011;23318;50.966;5.284;2024-02-21T07:29:09;17.92;;;6.57;;
37459;SDS011;23318;50.966;5.284;2024-02-21T07:31:38;14.82;;;5.80;;
37459;SDS011;23318;50.966;5.284;2024-02-21T07:34:06;13.60;;;6.07;;
37459;SDS011;23318;50.966;5.284;2024-02-21T07:36:31;17.80;;;7.28;;
37459;SDS011;23318;50.966;5.284;2024-02-21T07:38:57;23.92;;;7.63;;
37459;SDS011;23318;50.966;5.284;2024-02-21T07:41:22;19.27;;;7.32;;
37459;SDS011;23318;50.966;5.284;2024-02-21T07:43:48;18.90;;;7.15;;
37459;SDS011;23318;50.966;5.284;2024-02-21T07:46:14;17.67;;;7.00;;
37459;SDS011;23318;50.966;5.284;2024-02-21T07:48:40;15.32;;;6.65;;
37459;SDS011;23318;50.966;5.284;2024-02-21T07:51:05;19.00;;;7.28;;
37459;SDS011;23318;50.966;5.284;2024-02-21T07:53:31;13.95;;;7.13;;
37459;SDS011;23318;50.966;5.284;2024-02-21T07:55:56;18.35;;;6.63;;
37459;SDS011;23318;50.966;5.284;2024-02-21T07:58:22;24.75;;;7.13;;
37459;SDS011;23318;50.966;5.284;2024-02-21T08:00:48;20.15;;;7.60;;
37459;SDS011;23318;50.966;5.284;2024-02-21T08:03:14;20.13;;;7.40;;
37459;SDS011;23318;50.966;5.284;2024-02-21T08:05:42;23.75;;;8.05;;
37459;SDS011;23318;50.966;5.284;2024-02-21T08:08:08;23.92;;;8.38;;
37459;SDS011;23318;50.966;5.284;2024-02-21T08:10:34;16.67;;;6.82;;
37459;SDS011;23318;50.966;5.284;2024-02-21T08:13:00;18.20;;;7.57;;
37459;SDS011;23318;50.966;5.284;2024-02-21T08:15:25;17.27;;;6.97;;
37459;SDS011;23318;50.966;5.284;2024-02-21T08:17:54;14.95;;;6.25;;
37459;SDS011;23318;50.966;5.284;2024-02-21T08:20:24;14.18;;;5.75;;
37459;SDS011;23318;50.966;5.284;2024-02-21T08:22:50;18.23;;;6.03;;
37459;SDS011;23318;50.966;5.284;2024-02-21T08:25:15;13.18;;;5.70;;
37459;SDS011;23318;50.966;5.284;2024-02-21T08:27:41;18.45;;;6.00;;
37459;SDS011;23318;50.966;5.284;2024-02-21T08:30:07;14.68;;;6.30;;
37459;SDS011;23318;50.966;5.284;2024-02-21T08:32:33;12.90;;;5.43;;
37459;SDS011;23318;50.966;5.284;2024-02-21T08:35:00;10.15;;;4.75;;
37459;SDS011;23318;50.966;5.284;2024-02-21T08:37:29;10.23;;;3.97;;
37459;SDS011;23318;50.966;5.284;2024-02-21T08:39:55;11.15;;;4.90;;
37459;SDS011;23318;50.966;5.284;2024-02-21T08:42:20;13.57;;;4.95;;
37459;SDS011;23318;50.966;5.284;2024-02-21T08:44:46;12.43;;;4.38;;
37459;SDS011;23318;50.966;5.284;2024-02-21T08:47:12;9.30;;;4.53;;
37459;SDS011;23318;50.966;5.284;2024-02-21T08:49:37;11.23;;;4.20;;
37459;SDS011;23318;50.966;5.284;2024-02-21T08:52:03;11.40;;;4.07;;
37459;SDS011;23318;50.966;5.284;2024-02-21T08:54:30;9.50;;;3.55;;
37459;SDS011;23318;50.966;5.284;2024-02-21T08:56:57;8.77;;;3.83;;
37459;SDS011;23318;50.966;5.284;2024-02-21T08:59:23;12.00;;;3.95;;
37459;SDS011;23318;50.966;5.284;2024-02-21T09:01:51;11.35;;;4.07;;
37459;SDS011;23318;50.966;5.284;2024-02-21T09:04:18;10.10;;;3.63;;
37459;SDS011;23318;50.966;5.284;2024-02-21T09:06:44;10.65;;;3.60;;
37459;SDS011;23318;50.966;5.284;2024-02-21T09:09:11;8.85;;;3.60;;
37459;SDS011;23318;50.966;5.284;2024-02-21T09:11:37;11.02;;;3.70;;
37459;SDS011;23318;50.966;5.284;2024-02-21T09:14:03;14.50;;;3.95;;
37459;SDS011;23318;50.966;5.284;2024-02-21T09:16:30;10.90;;;3.22;;
37459;SDS011;23318;50.966;5.284;2024-02-21T09:18:59;8.93;;;3.15;;
37459;SDS011;23318;50.966;5.284;2024-02-21T09:21:25;11.98;;;3.78;;
37459;SDS011;23318;50.966;5.284;2024-02-21T09:23:51;8.00;;;3.22;;
37459;SDS011;23318;50.966;5.284;2024-02-21T09:26:16;13.40;;;3.80;;
37459;SDS011;23318;50.966;5.284;2024-02-21T09:28:42;5.07;;;3.03;;
37459;SDS011;23318;50.966;5.284;2024-02-21T09:31:09;11.63;;;3.42;;
37459;SDS011;23318;50.966;5.284;2024-02-21T09:33:35;8.23;;;3.35;;
37459;SDS011;23318;50.966;5.284;2024-02-21T09:36:02;7.10;;;3.55;;
37459;SDS011;23318;50.966;5.284;2024-02-21T09:38:27;8.60;;;3.40;;
37459;SDS011;23318;50.966;5.284;2024-02-21T09:41:00;11.73;;;3.25;;
37459;SDS011;23318;50.966;5.284;2024-02-21T09:43:39;7.15;;;3.38;;
37459;SDS011;23318;50.966;5.284;2024-02-21T09:46:06;11.40;;;3.40;;
37459;SDS011;23318;50.966;5.284;2024-02-21T09:51:20;7.93;;;3.08;;
37459;SDS011;23318;50.966;5.284;2024-02-21T09:53:48;13.07;;;4.03;;
37459;SDS011;23318;50.966;5.284;2024-02-21T09:56:15;10.35;;;3.60;;
37459;SDS011;23318;50.966;5.284;2024-02-21T09:58:41;10.23;;;4.07;;
37459;SDS011;23318;50.966;5.284;2024-02-21T10:01:07;10.38;;;4.40;;
37459;SDS011;23318;50.966;5.284;2024-02-21T10:03:33;12.52;;;3.80;;
37459;SDS011;23318;50.966;5.284;2024-02-21T10:05:59;13.57;;;3.35;;
37459;SDS011;23318;50.966;5.284;2024-02-21T10:08:26;12.82;;;4.00;;
37459;SDS011;23318;50.966;5.284;2024-02-21T10:10:52;6.93;;;3.08;;
37459;SDS011;23318;50.966;5.284;2024-02-21T10:13:27;10.75;;;3.67;;
37459;SDS011;23318;50.966;5.284;2024-02-21T10:16:04;10.00;;;3.28;;
37459;SDS011;23318;50.966;5.284;2024-02-21T10:18:36;9.25;;;3.53;;
37459;SDS011;23318;50.966;5.284;2024-02-21T10:23:28;10.18;;;3.17;;
37459;SDS011;23318;50.966;5.284;2024-02-21T10:25:54;13.23;;;3.88;;
37459;SDS011;23318;50.966;5.284;2024-02-21T10:28:31;12.00;;;4.65;;
37459;SDS011;23318;50.966;5.284;2024-02-21T10:30:57;11.63;;;3.50;;
37459;SDS011;23318;50.966;5.284;2024-02-21T10:33:22;9.43;;;3.58;;
37459;SDS011;23318;50.966;5.284;2024-02-21T10:35:50;9.95;;;3.72;;
37459;SDS011;23318;50.966;5.284;2024-02-21T10:38:16;10.38;;;3.88;;
37459;SDS011;23318;50.966;5.284;2024-02-21T10:40:42;9.90;;;3.28;;
37459;SDS011;23318;50.966;5.284;2024-02-21T10:43:11;12.35;;;3.20;;
37459;SDS011;23318;50.966;5.284;2024-02-21T10:45:39;14.65;;;3.05;;
37459;SDS011;23318;50.966;5.284;2024-02-21T10:50:32;13.73;;;3.33;;
37459;SDS011;23318;50.966;5.284;2024-02-21T10:53:06;8.57;;;2.85;;
37459;SDS011;23318;50.966;5.284;2024-02-21T10:55:43;8.18;;;2.90;;
37459;SDS011;23318;50.966;5.284;2024-02-21T10:58:15;6.78;;;2.83;;
37459;SDS011;23318;50.966;5.284;2024-02-21T11:00:42;11.88;;;3.63;;
37459;SDS011;23318;50.966;5.284;2024-02-21T11:03:07;6.00;;;2.90;;
37459;SDS011;23318;50.966;5.284;2024-02-21T11:05:34;7.18;;;2.72;;
37459;SDS011;23318;50.966;5.284;2024-02-21T11:08:00;13.95;;;3.58;;
37459;SDS011;23318;50.966;5.284;2024-02-21T11:10:27;18.85;;;3.45;;
37459;SDS011;23318;50.966;5.284;2024-02-21T11:13:13;10.57;;;3.00;;
37459;SDS011;23318;50.966;5.284;2024-02-21T11:15:39;7.70;;;2.67;;
37459;SDS011;23318;50.966;5.284;2024-02-21T11:18:05;6.30;;;2.67;;
37459;SDS011;23318;50.966;5.284;2024-02-21T11:20:37;10.93;;;3.28;;
37459;SDS011;23318;50.966;5.284;2024-02-21T11:23:03;6.67;;;3.37;;
37459;SDS011;23318;50.966;5.284;2024-02-21T11:25:30;5.78;;;2.85;;
37459;SDS011;23318;50.966;5.284;2024-02-21T11:28:02;6.82;;;2.78;;
37459;SDS011;23318;50.966;5.284;2024-02-21T11:30:32;10.07;;;4.07;;
37459;SDS011;23318;50.966;5.284;2024-02-21T11:33:03;10.15;;;3.85;;
37459;SDS011;23318;50.966;5.284;2024-02-21T11:35:34;9.02;;;2.72;;
37459;SDS011;23318;50.966;5.284;2024-02-21T11:38:10;11.73;;;2.83;;
37459;SDS011;23318;50.966;5.284;2024-02-21T11:40:43;9.20;;;3.65;;
37459;SDS011;23318;50.966;5.284;2024-02-21T11:43:09;8.88;;;2.97;;
37459;SDS011;23318;50.966;5.284;2024-02-21T11:45:35;17.85;;;3.58;;
37459;SDS011;23318;50.966;5.284;2024-02-21T11:48:01;7.72;;;2.10;;
37459;SDS011;23318;50.966;5.284;2024-02-21T11:50:30;14.63;;;2.65;;
37459;SDS011;23318;50.966;5.284;2024-02-21T11:52:56;15.45;;;2.40;;
37459;SDS011;23318;50.966;5.284;2024-02-21T11:55:22;5.10;;;2.28;;
37459;SDS011;23318;50.966;5.284;2024-02-21T11:57:48;6.25;;;2.60;;
37459;SDS011;23318;50.966;5.284;2024-02-21T12:00:15;7.55;;;2.00;;
37459;SDS011;23318;50.966;5.284;2024-02-21T12:02:42;6.57;;;2.40;;
37459;SDS011;23318;50.966;5.284;2024-02-21T12:05:10;6.07;;;2.53;;
37459;SDS011;23318;50.966;5.284;2024-02-21T12:07:36;6.15;;;2.17;;
37459;SDS011;23318;50.966;5.284;2024-02-21T12:10:08;7.88;;;2.17;;
37459;SDS011;23318;50.966;5.284;2024-02-21T12:12:35;7.15;;;2.72;;
37459;SDS011;23318;50.966;5.284;2024-02-21T12:15:03;7.10;;;2.20;;
37459;SDS011;23318;50.966;5.284;2024-02-21T12:17:29;6.53;;;2.47;;
37459;SDS011;23318;50.966;5.284;2024-02-21T12:19:56;8.88;;;2.70;;
37459;SDS011;23318;50.966;5.284;2024-02-21T12:22:22;11.70;;;3.22;;
37459;SDS011;23318;50.966;5.284;2024-02-21T12:24:48;8.15;;;2.63;;
37459;SDS011;23318;50.966;5.284;2024-02-21T12:27:13;7.75;;;2.17;;
37459;SDS011;23318;50.966;5.284;2024-02-21T12:29:39;8.38;;;2.70;;
37459;SDS011;23318;50.966;5.284;2024-02-21T12:32:05;6.97;;;3.20;;
37459;SDS011;23318;50.966;5.284;2024-02-21T12:34:30;11.05;;;2.63;;
37459;SDS011;23318;50.966;5.284;2024-02-21T12:37:01;6.57;;;2.10;;
37459;SDS011;23318;50.966;5.284;2024-02-21T12:39:28;9.32;;;2.92;;
37459;SDS011;23318;50.966;5.284;2024-02-21T12:41:54;9.23;;;2.35;;
37459;SDS011;23318;50.966;5.284;2024-02-21T12:44:21;15.18;;;3.63;;
37459;SDS011;23318;50.966;5.284;2024-02-21T12:46:47;6.05;;;2.42;;
37459;SDS011;23318;50.966;5.284;2024-02-21T12:49:17;6.38;;;2.08;;
37459;SDS011;23318;50.966;5.284;2024-02-21T12:51:43;9.25;;;2.63;;
37459;SDS011;23318;50.966;5.284;2024-02-21T12:54:11;5.95;;;2.35;;
37459;SDS011;23318;50.966;5.284;2024-02-21T12:56:37;4.65;;;1.80;;
37459;SDS011;23318;50.966;5.284;2024-02-21T12:59:04;7.97;;;2.70;;
37459;SDS011;23318;50.966;5.284;2024-02-21T13:01:32;6.15;;;1.80;;
37459;SDS011;23318;50.966;5.284;2024-02-21T13:03:58;8.02;;;1.48;;
37459;SDS011;23318;50.966;5.284;2024-02-21T13:06:25;6.20;;;2.50;;
37459;SDS011;23318;50.966;5.284;2024-02-21T13:08:51;7.80;;;1.90;;
37459;SDS011;23318;50.966;5.284;2024-02-21T13:11:17;6.15;;;1.80;;
37459;SDS011;23318;50.966;5.284;2024-02-21T13:13:43;8.63;;;1.52;;
37459;SDS011;23318;50.966;5.284;2024-02-21T13:16:08;4.50;;;1.58;;
37459;SDS011;23318;50.966;5.284;2024-02-21T13:18:35;4.65;;;1.38;;
37459;SDS011;23318;50.966;5.284;2024-02-21T13:21:03;3.90;;;1.20;;
37459;SDS011;23318;50.966;5.284;2024-02-21T13:23:29;7.00;;;2.20;;
37459;SDS011;23318;50.966;5.284;2024-02-21T13:25:55;8.57;;;1.42;;
37459;SDS011;23318;50.966;5.284;2024-02-21T13:28:21;4.55;;;1.70;;
37459;SDS011;23318;50.966;5.284;2024-02-21T13:30:46;4.90;;;1.65;;
37459;SDS011;23318;50.966;5.284;2024-02-21T13:33:12;3.95;;;1.50;;
37459;SDS011;23318;50.966;5.284;2024-02-21T13:35:38;1.80;;;1.17;;
37459;SDS011;23318;50.966;5.284;2024-02-21T13:38:04;4.45;;;1.30;;
37459;SDS011;23318;50.966;5.284;2024-02-21T13:40:30;3.60;;;1.38;;
37459;SDS011;23318;50.966;5.284;2024-02-21T13:42:56;6.10;;;1.58;;
37459;SDS011;23318;50.966;5.284;2024-02-21T13:45:21;2.67;;;1.40;;
37459;SDS011;23318;50.966;5.284;2024-02-21T13:47:47;3.10;;;1.50;;
37459;SDS011;23318;50.966;5.284;2024-02-21T13:50:13;6.20;;;1.88;;
37459;SDS011;23318;50.966;5.284;2024-02-21T13:52:39;3.80;;;1.50;;
37459;SDS011;23318;50.966;5.284;2024-02-21T13:55:05;3.67;;;1.40;;
37459;SDS011;23318;50.966;5.284;2024-02-21T13:57:35;2.83;;;1.50;;
37459;SDS011;23318;50.966;5.284;2024-02-21T14:00:01;3.85;;;1.35;;
37459;SDS011;23318;50.966;5.284;2024-02-21T14:02:30;4.07;;;1.55;;
37459;SDS011;23318;50.966;5.284;2024-02-21T14:04:56;3.28;;;1.95;;
37459;SDS011;23318;50.966;5.284;2024-02-21T14:07:22;7.35;;;1.92;;
37459;SDS011;23318;50.966;5.284;2024-02-21T14:09:47;7.53;;;1.77;;
37459;SDS011;23318;50.966;5.284;2024-02-21T14:12:13;3.75;;;1.40;;
37459;SDS011;23318;50.966;5.284;2024-02-21T14:14:42;8.20;;;1.73;;
37459;SDS011;23318;50.966;5.284;2024-02-21T14:17:09;11.68;;;1.70;;
37459;SDS011;23318;50.966;5.284;2024-02-21T14:19:34;7.55;;;1.77;;
37459;SDS011;23318;50.966;5.284;2024-02-21T14:22:00;2.60;;;1.30;;
37459;SDS011;23318;50.966;5.284;2024-02-21T14:24:27;4.93;;;1.48;;
37459;SDS011;23318;50.966;5.284;2024-02-21T14:26:53;4.88;;;1.60;;
37459;SDS011;23318;50.966;5.284;2024-02-21T14:29:19;5.60;;;1.83;;
37459;SDS011;23318;50.966;5.284;2024-02-21T14:31:46;7.72;;;2.13;;
37459;SDS011;23318;50.966;5.284;2024-02-21T14:34:11;10.10;;;2.17;;
37459;SDS011;23318;50.966;5.284;2024-02-21T14:36:37;2.80;;;1.35;;
37459;SDS011;23318;50.966;5.284;2024-02-21T14:39:03;2.47;;;1.30;;
37459;SDS011;23318;50.966;5.284;2024-02-21T14:41:29;6.63;;;1.67;;